Time;durP1;ratioP1;P1;durP2;ratioP2;P2;SDS_P1;SDS_P2;PMS_P1;PMS_P2;Temp;Humidity;BMP_temperature;BMP_pressure;BME280_temperature;BME280_humidity;BME280_pressure;Samples;Min_cycle;Max_cycle;Signal;HPM_P1;HPM_P2
2022/01/28 00:01:22;;;;;;;18.15;2.22;;;;;;;-146.64;100.00;40465.63;5055836;28;19916;-73
2022/01/28 00:03:47;;;;;;;13.02;2.33;;;;;;;-146.64;100.00;40473.81;5037259;28;20387;-73
2022/01/28 00:06:13;;;;;;;20.38;3.30;;;;;;;-146.64;100.00;40418.53;5052113;28;20062;-73
2022/01/28 00:08:38;;;;;;;15.48;3.42;;;;;;;-146.64;100.00;40426.72;5070636;28;20028;-72
2022/01/28 00:11:04;;;;;;;21.42;2.45;;;;;;;-146.64;100.00;40398.06;5053577;28;20381;-73
2022/01/28 00:13:34;;;;;;;15.52;3.17;;;;;;;-146.64;100.00;40414.44;5053933;28;20128;-73
2022/01/28 00:16:24;;;;;;;16.33;1.98;;;;;;;-146.64;100.00;40385.78;5024422;28;20029;-73
2022/01/28 00:40:28;;;;;;;30.55;3.10;;;;;;;-146.64;100.00;40344.84;5045131;28;20029;-73
2022/01/28 00:42:54;;;;;;;17.77;3.33;;;;;;;-146.64;100.00;40340.75;5022788;28;20481;-73
2022/01/28 00:45:20;;;;;;;23.13;3.28;;;;;;;-146.64;100.00;40297.75;5050719;28;20341;-73
2022/01/28 00:47:47;;;;;;;20.60;2.83;;;;;;;-146.64;100.00;40312.09;5047175;28;20419;-73
2022/01/28 00:50:12;;;;;;;13.50;2.35;;;;;;;-146.64;100.00;40256.81;5050485;28;20024;-73
2022/01/28 00:52:37;;;;;;;29.38;2.63;;;;;;;-146.64;100.00;40369.41;5050397;28;20028;-73
2022/01/28 00:55:03;;;;;;;19.83;2.20;;;;;;;-146.64;100.00;40426.72;5071852;28;20040;-73
2022/01/28 00:57:28;;;;;;;16.63;2.75;;;;;;;-146.64;100.00;40373.50;5053970;28;20040;-72
2022/01/28 00:59:55;;;;;;;14.05;2.40;;;;;;;-146.64;100.00;40449.25;5070170;28;20446;-73
2022/01/28 01:02:20;;;;;;;14.85;2.83;;;;;;;-146.64;100.00;40482.00;5070053;28;20452;-72
2022/01/28 01:04:46;;;;;;;27.98;3.85;;;;;;;-146.64;100.00;40471.78;5053852;28;20084;-73
2022/01/28 01:07:11;;;;;;;16.85;2.38;;;;;;;-146.64;100.00;40504.53;5065503;28;20028;-72
2022/01/28 01:09:36;;;;;;;20.40;2.95;;;;;;;-146.64;100.00;40449.25;5056256;28;20028;-73
2022/01/28 01:12:02;;;;;;;20.80;2.60;;;;;;;-146.64;100.00;40549.56;5073257;28;20036;-73
2022/01/28 01:14:28;;;;;;;22.52;2.85;;;;;;;-146.64;100.00;40576.19;5069938;28;20033;-73
2022/01/28 01:17:15;;;;;;;22.95;3.13;;;;;;;-146.64;100.00;40596.66;5076059;28;20104;-73
2022/01/28 01:19:45;;;;;;;25.48;3.03;;;;;;;-146.64;100.00;40709.25;5052837;28;20077;-72
2022/01/28 01:22:12;;;;;;;22.15;2.63;;;;;;;-146.64;100.00;40690.84;5052582;28;20480;-73
2022/01/28 01:24:47;;;;;;;25.25;2.83;;;;;;;-146.64;100.00;40742.00;5039612;28;20055;-73
2022/01/28 01:27:13;;;;;;;19.98;2.72;;;;;;;-146.64;100.00;40780.91;5046473;28;20063;-73
2022/01/28 01:29:42;;;;;;;22.85;3.30;;;;;;;-146.64;100.00;40885.31;5057285;28;20520;-73
2022/01/28 01:32:13;;;;;;;12.02;2.20;;;;;;;-146.64;100.00;40926.28;5058484;28;20024;-73
2022/01/28 01:34:38;;;;;;;13.68;3.22;;;;;;;-146.64;100.00;40914.00;5034973;28;20506;-73
2022/01/28 01:37:03;;;;;;;22.55;3.35;;;;;;;-146.64;100.00;41036.84;5073959;28;20046;-73
2022/01/28 01:39:33;;;;;;;24.38;3.78;;;;;;;-146.64;100.00;41155.59;5055556;28;20610;-74
2022/01/28 01:42:07;;;;;;;22.50;3.30;;;;;;;-146.64;100.00;41237.50;5056885;28;20028;-73
2022/01/28 01:44:58;;;;;;;23.23;4.10;;;;;;;-146.64;100.00;41290.75;5057053;28;20384;-73
2022/01/28 01:52:43;;;;;;;28.60;3.15;;;;;;;-146.64;100.00;41491.41;5059093;28;20031;-73
2022/01/28 01:55:09;;;;;;;27.10;3.30;;;;;;;-146.64;100.00;41425.88;5035340;28;20041;-73
2022/01/28 01:57:37;;;;;;;25.80;4.45;;;;;;;-146.64;100.00;41561.03;5067105;28;20074;-73
2022/01/28 02:00:04;;;;;;;17.15;3.03;;;;;;;-146.64;100.00;41688.00;5053721;28;20024;-73
2022/01/28 02:02:29;;;;;;;;;;;;;;;-146.64;100.00;41937.84;5044242;28;20055;-75
2022/01/28 02:04:55;;;;;;;21.88;2.55;;;;;;;-146.64;100.00;42265.53;5053822;28;19917;-74
2022/01/28 02:07:20;;;;;;;23.70;3.20;;;;;;;-146.64;100.00;42288.06;5050927;28;20074;-74
2022/01/28 02:09:45;;;;;;;26.10;3.05;;;;;;;-146.64;100.00;43007.03;5057180;28;20102;-74
2022/01/28 02:12:11;;;;;;;24.25;3.00;;;;;;;-146.64;100.00;42906.66;5049582;28;20435;-75
2022/01/28 02:14:36;;;;;;;17.30;3.00;;;;;;;-146.64;100.00;43224.16;5032665;28;20033;-74
2022/01/28 02:17:03;;;;;;;24.40;3.40;;;;;;;-146.64;100.00;43324.56;5036861;28;20025;-74
2022/01/28 02:19:28;;;;;;;18.08;2.47;;;;;;;-146.64;100.00;43304.06;5055486;28;20035;-75
2022/01/28 02:21:54;;;;;;;19.70;2.78;;;;;;;-146.64;100.00;43588.84;5032160;28;20140;-74
2022/01/28 02:24:40;;;;;;;27.85;3.83;;;;;;;-146.64;100.00;43334.81;5038690;28;20376;-75
2022/01/28 02:27:06;;;;;;;20.88;3.10;;;;;;;-146.64;100.00;43613.44;5059056;28;20031;-75
2022/01/28 02:29:34;;;;;;;25.20;3.25;;;;;;;-146.64;100.00;44135.91;5074273;28;20108;-75
2022/01/28 02:32:01;;;;;;;36.47;4.07;;;;;;;-146.64;100.00;44672.81;5053275;28;20028;-74
2022/01/28 02:34:27;;;;;;;26.85;3.00;;;;;;;-146.64;100.00;44840.88;5056233;28;20029;-74
2022/01/28 02:36:52;;;;;;;22.92;3.25;;;;;;;-146.64;100.00;44711.75;5048227;28;20016;-74
2022/01/28 02:39:17;;;;;;;20.63;3.05;;;;;;;-146.64;100.00;44777.34;5073276;28;20441;-74
2022/01/28 02:41:47;;;;;;;25.98;3.70;;;;;;;-146.64;100.00;46027.69;5054714;28;20025;-75
2022/01/28 02:44:24;;;;;;;19.25;4.28;;;;;;;-146.64;100.00;46864.22;5072271;28;20077;-75
2022/01/28 02:47:02;;;;;;;27.15;3.50;;;;;;;-146.64;100.00;44994.59;5034618;28;20076;-75
2022/01/28 02:49:34;;;;;;;15.98;2.67;;;;;;;-146.64;100.00;44260.91;5051466;28;20115;-74
2022/01/28 02:52:01;;;;;;;18.20;3.65;;;;;;;-146.64;100.00;44148.22;5071492;28;20028;-74
2022/01/28 02:54:26;;;;;;;28.05;5.13;;;;;;;-146.64;100.00;46435.69;5035337;28;20175;-74
2022/01/28 02:56:57;;;;;;;25.08;4.43;;;;;;;-146.64;100.00;47046.72;5051970;28;20416;-74
2022/01/28 02:59:22;;;;;;;25.65;3.72;;;;;;;-146.64;100.00;49727.78;5051927;28;20024;-74
2022/01/28 03:01:48;;;;;;;18.15;2.60;;;;;;;-146.64;100.00;51819.34;5055022;28;20034;-75
2022/01/28 03:04:35;;;;;;;23.90;3.42;;;;;;;-146.64;100.00;54778.97;5073762;28;20123;-74
2022/01/28 03:06:59;;;;;;;32.30;2.95;;;;;;;-146.64;100.00;55041.97;5054129;28;20036;-74
2022/01/28 03:09:24;;;;;;;17.30;2.72;;;;;;;-146.64;100.00;55041.97;5052773;28;20032;-74
2022/01/28 03:12:11;;;;;;;21.55;3.00;;;;;;;-146.64;100.00;56094.16;5051660;28;20492;-74
2022/01/28 03:14:54;;;;;;;28.20;3.22;;;;;;;-146.64;100.00;59778.97;5037950;28;20056;-75
2022/01/28 03:20:29;;;;;;;33.50;3.83;;;;;;;-146.64;100.00;62149.59;5073770;28;20028;-74
2022/01/28 03:22:47;;;;;;;22.27;3.40;;;;;;;-146.64;100.00;62676.59;5067608;28;20039;-73
2022/01/28 03:25:14;;;;;;;25.00;3.80;;;;;;;-146.64;100.00;64258.03;5060184;28;20029;-72
2022/01/28 03:27:57;;;;;;;19.00;2.92;;;;;;;-146.64;100.00;66367.56;5038456;28;20035;-73
2022/01/28 03:30:23;;;;;;;17.60;2.83;;;;;;;-146.64;100.00;67158.91;5071925;28;20024;-73
2022/01/28 03:32:49;;;;;;;14.30;2.55;;;;;;;-146.64;100.00;66631.31;5044310;28;20028;-73
2022/01/28 03:35:16;;;;;;;18.70;2.85;;;;;;;-146.64;100.00;64785.31;5046400;28;20480;-72
2022/01/28 03:37:41;;;;;;;26.50;3.03;;;;;;;-146.64;100.00;62676.59;5051526;28;20029;-73
2022/01/28 03:40:08;;;;;;;29.35;3.65;;;;;;;-146.64;100.00;59778.97;5057676;28;20024;-73
2022/01/28 03:42:34;;;;;;;26.25;3.78;;;;;;;-146.64;100.00;56883.47;5069119;28;20043;-73
2022/01/28 03:44:59;;;;;;;16.27;2.60;;;;;;;-146.64;100.00;53891.47;5050349;28;20247;-72
2022/01/28 03:47:25;;;;;;;21.77;2.85;;;;;;;-146.64;100.00;51829.63;5071561;28;20024;-73
2022/01/28 03:49:50;;;;;;;28.75;3.30;;;;;;;-146.64;100.00;49452.84;5050507;28;20058;-73
2022/01/28 03:52:15;;;;;;;20.08;3.28;;;;;;;-146.64;100.00;49247.66;5053470;28;20029;-73
2022/01/28 03:54:41;;;;;;;18.60;2.38;;;;;;;-146.64;100.00;47130.81;5028087;28;20039;-73
2022/01/28 03:57:07;;;;;;;25.00;4.88;;;;;;;-146.64;100.00;46907.28;5065188;28;20115;-73
2022/01/28 03:59:33;;;;;;;20.53;3.20;;;;;;;-146.64;100.00;47149.25;5055572;28;20140;-72
2022/01/28 04:01:58;;;;;;;14.55;2.78;;;;;;;-146.64;100.00;45863.69;5054557;28;20020;-73
2022/01/28 04:12:32;;;;;;;19.50;1.98;;;;;;;-146.64;100.00;42347.47;5069605;28;20039;-72
2022/01/28 04:17:31;;;;;;;19.63;2.92;;;;;;;-146.64;100.00;42142.66;5072314;28;20388;-72
2022/01/28 04:19:57;;;;;;;22.50;3.45;;;;;;;-146.64;100.00;41999.28;5040289;28;20031;-72
2022/01/28 04:22:22;;;;;;;16.95;2.15;;;;;;;-146.64;100.00;41745.34;5050205;28;20029;-72
2022/01/28 04:24:48;;;;;;;16.10;3.22;;;;;;;-146.64;100.00;41554.88;5050532;28;20076;-73
2022/01/28 04:27:13;;;;;;;19.17;2.83;;;;;;;-146.64;100.00;41442.25;5053611;28;20044;-72
2022/01/28 04:29:39;;;;;;;18.63;2.53;;;;;;;-146.64;100.00;41065.50;5038303;28;20357;-72
2022/01/28 04:32:04;;;;;;;17.50;2.35;;;;;;;-146.64;100.00;41155.59;5051496;28;20025;-74
2022/01/28 04:34:30;;;;;;;17.65;2.17;;;;;;;-146.64;100.00;41233.41;5054496;28;20016;-72
2022/01/28 04:40:12;;;;;;;14.50;2.72;;;;;;;-146.64;100.00;41436.13;5051148;28;20025;-72
2022/01/28 04:58:10;;;;;;;16.45;2.28;;;;;;;-146.64;100.00;41667.53;5058610;28;20044;-72
2022/01/28 05:06:19;;;;;;;19.02;2.17;;;;;;;-146.64;100.00;41622.47;5048162;28;20039;-74
2022/01/28 05:09:13;;;;;;;13.38;2.20;;;;;;;-146.64;100.00;41630.66;5054915;28;20337;-72
2022/01/28 05:12:08;;;;;;;20.33;1.90;;;;;;;-146.64;100.00;41796.53;5058747;28;20047;-72
2022/01/28 05:25:47;;;;;;;10.13;2.00;;;;;;;-146.64;100.00;42560.47;5048485;28;20085;-74
2022/01/28 05:28:13;;;;;;;14.05;2.80;;;;;;;-146.64;100.00;42544.09;5064790;28;20056;-73
2022/01/28 05:30:39;;;;;;;14.45;2.72;;;;;;;-146.64;100.00;43103.31;5074374;28;20071;-72
2022/01/28 05:33:04;;;;;;;14.45;2.22;;;;;;;-146.64;100.00;43123.78;5066285;28;20036;-74
2022/01/28 05:35:31;;;;;;;10.98;1.95;;;;;;;-146.64;100.00;43584.75;5051450;28;20024;-74
2022/01/28 05:37:56;;;;;;;18.00;2.13;;;;;;;-146.64;100.00;45072.47;5057085;28;20617;-74
2022/01/28 05:40:21;;;;;;;16.85;2.20;;;;;;;-146.64;100.00;46212.22;5053998;28;20036;-74
2022/01/28 05:42:47;;;;;;;20.55;2.30;;;;;;;-146.64;100.00;46942.16;5055571;28;20032;-74
2022/01/28 05:45:13;;;;;;;14.07;1.98;;;;;;;-146.64;100.00;47063.13;5046078;28;20020;-74
2022/01/28 05:47:38;;;;;;;10.37;1.83;;;;;;;-146.64;100.00;48894.75;5040366;28;20016;-74
2022/01/28 05:50:05;;;;;;;15.48;2.38;;;;;;;-146.64;100.00;49262.00;5040281;28;20036;-74
2022/01/28 05:52:31;;;;;;;14.15;3.08;;;;;;;-146.64;100.00;49395.38;5046360;28;20452;-74
2022/01/28 05:54:57;;;;;;;20.95;3.03;;;;;;;-146.64;100.00;53887.34;5067135;28;20031;-74
2022/01/28 05:57:24;;;;;;;8.90;1.80;;;;;;;-146.64;100.00;54778.97;5044097;28;20041;-74
2022/01/28 05:59:49;;;;;;;13.88;2.88;;;;;;;-146.64;100.00;56620.34;5055909;28;20068;-74
2022/01/28 06:02:14;;;;;;;12.32;1.77;;;;;;;-146.64;100.00;59515.66;5074970;28;20460;-75
2022/01/28 06:04:39;;;;;;;9.95;1.58;;;;;;;-146.64;100.00;61359.25;5060525;28;20024;-74
2022/01/28 06:07:05;;;;;;;13.63;2.47;;;;;;;-146.64;100.00;59252.38;5042006;28;20033;-74
2022/01/28 06:09:30;;;;;;;16.08;3.03;;;;;;;-146.64;100.00;60305.66;5052228;28;20029;-74
2022/01/28 06:11:56;;;;;;;12.50;2.30;;;;;;;-146.64;100.00;60569.03;5064052;28;20036;-74
2022/01/28 06:14:22;;;;;;;15.10;2.53;;;;;;;-146.64;100.00;63203.69;5073444;28;20029;-74
2022/01/28 06:16:48;;;;;;;13.80;2.63;;;;;;;-146.64;100.00;63203.69;5056488;28;20032;-74
2022/01/28 06:19:14;;;;;;;11.38;2.83;;;;;;;-146.64;100.00;63730.81;5034582;28;20500;-75
2022/01/28 06:21:39;;;;;;;15.23;2.38;;;;;;;-146.64;100.00;64521.66;5053231;28;20037;-74
2022/01/28 06:24:05;;;;;;;16.38;2.67;;;;;;;-146.64;100.00;64258.03;5055887;28;20036;-74
2022/01/28 06:26:31;;;;;;;10.40;2.13;;;;;;;-146.64;100.00;64258.03;5054131;28;20028;-75
2022/01/28 06:28:56;;;;;;;14.75;2.35;;;;;;;-146.64;100.00;66631.31;5053030;28;20036;-74
2022/01/28 06:31:21;;;;;;;19.05;2.47;;;;;;;-146.64;100.00;67158.91;5036721;28;20025;-74
2022/01/28 06:33:46;;;;;;;16.95;2.90;;;;;;;-146.64;100.00;66103.78;5069157;28;20036;-75
2022/01/28 06:36:12;;;;;;;13.05;3.17;;;;;;;-146.64;100.00;67158.91;5045076;28;20028;-74
2022/01/28 06:38:37;;;;;;;14.25;2.42;;;;;;;-146.64;100.00;66895.09;5056246;28;20020;-74
2022/01/28 06:41:03;;;;;;;6.95;2.10;;;;;;;-146.64;100.00;68478.19;5054151;28;20027;-75
2022/01/28 06:43:29;;;;;;;20.83;2.13;;;;;;;-146.64;100.00;70061.91;5056518;28;20024;-74
2022/01/28 06:45:54;;;;;;;13.68;2.20;;;;;;;-146.64;100.00;71118.06;5055956;28;20082;-74
2022/01/28 06:48:19;;;;;;;10.23;2.30;;;;;;;-146.64;100.00;69797.91;5052778;28;20107;-75
2022/01/28 06:50:45;;;;;;;11.27;2.47;;;;;;;-146.64;100.00;70589.97;5063915;28;20477;-76
2022/01/28 06:53:13;;;;;;;13.77;2.50;;;;;;;-146.64;100.00;71118.06;5051245;28;20385;-74
2022/01/28 06:55:38;;;;;;;17.45;2.38;;;;;;;-146.64;100.00;71118.06;5039814;28;20044;-74
2022/01/28 06:58:05;;;;;;;14.75;2.50;;;;;;;-146.64;100.00;72438.66;5069495;28;20439;-74
2022/01/28 07:00:36;;;;;;;10.05;2.22;;;;;;;-146.64;100.00;72967.03;5056201;28;20040;-75
2022/01/28 07:03:02;;;;;;;12.75;2.03;;;;;;;-146.64;100.00;72174.50;5057217;28;20032;-74
2022/01/28 07:05:27;;;;;;;7.90;2.60;;;;;;;-146.64;100.00;72438.66;5047689;28;20437;-74
2022/01/28 07:07:52;;;;;;;11.65;2.45;;;;;;;-146.64;100.00;74288.22;5038525;28;20044;-75
2022/01/28 07:10:18;;;;;;;14.60;2.80;;;;;;;-146.64;100.00;75345.50;5073054;28;20036;-74
2022/01/28 07:12:43;;;;;;;9.65;2.70;;;;;;;-146.64;100.00;74552.53;5035711;28;20031;-74
2022/01/28 07:15:08;;;;;;;14.90;2.88;;;;;;;-146.64;100.00;74023.97;5053947;28;20441;-75
2022/01/28 07:17:34;;;;;;;23.85;3.13;;;;;;;-146.64;100.00;74023.97;5035050;28;20060;-74
2022/01/28 07:19:59;;;;;;;18.95;3.25;;;;;;;-146.64;100.00;75345.50;5036189;28;20033;-74
2022/01/28 07:22:26;;;;;;;26.75;3.55;;;;;;;-146.64;100.00;76931.94;5052919;28;20024;-75
2022/01/28 07:24:51;;;;;;;19.80;3.70;;;;;;;-146.64;100.00;76403.06;5051035;28;20035;-75
2022/01/28 07:27:19;;;;;;;15.90;3.50;;;;;;;-146.64;100.00;76138.66;5019682;28;20033;-74
2022/01/28 07:29:47;;;;;;;14.18;3.10;;;;;;;-146.64;100.00;77460.91;5035680;28;20475;-74
2022/01/28 07:32:13;;;;;;;24.33;4.28;;;;;;;-146.64;100.00;79577.41;5049962;28;20028;-74
2022/01/28 07:34:38;;;;;;;21.35;3.95;;;;;;;-146.64;100.00;80900.81;5051998;28;20391;-75
2022/01/28 07:37:04;;;;;;;24.60;4.38;;;;;;;-146.64;100.00;80106.72;5054160;28;20082;-74
2022/01/28 07:39:31;;;;;;;18.83;4.43;;;;;;;-146.64;100.00;79577.41;5049125;28;20025;-75
2022/01/28 07:41:56;;;;;;;20.92;4.07;;;;;;;-146.64;100.00;78783.59;5050504;28;20200;-74
2022/01/28 07:44:22;;;;;;;19.77;3.50;;;;;;;-146.64;100.00;79312.78;5031979;28;20127;-74
2022/01/28 07:46:47;;;;;;;18.42;3.95;;;;;;;-146.64;100.00;79312.78;5050304;28;20097;-74
2022/01/28 07:49:12;;;;;;;18.83;3.88;;;;;;;-146.64;100.00;79048.19;5058497;28;20028;-74
2022/01/28 07:51:39;;;;;;;22.58;4.32;;;;;;;-146.64;100.00;79577.41;5050768;28;20032;-74
2022/01/28 07:54:05;;;;;;;19.95;3.30;;;;;;;-146.64;100.00;80900.81;5048999;28;20310;-74
2022/01/28 07:56:30;;;;;;;16.20;3.92;;;;;;;-146.64;100.00;81430.28;5063555;28;20389;-74
2022/01/28 07:58:55;;;;;;;22.45;3.83;;;;;;;-146.64;100.00;81430.28;5053543;28;20016;-74
2022/01/28 08:01:21;;;;;;;19.65;3.97;;;;;;;-146.64;100.00;81959.81;5052240;28;20464;-74
2022/01/28 08:03:46;;;;;;;17.35;4.32;;;;;;;-146.64;100.00;81430.28;5030027;28;20067;-74
2022/01/28 08:06:11;;;;;;;22.73;5.50;;;;;;;-146.64;100.00;81430.28;5059418;28;20380;-74
2022/01/28 08:08:37;;;;;;;30.33;4.60;;;;;;;-146.64;100.00;81165.53;5048081;28;20039;-74
2022/01/28 08:11:03;;;;;;;18.17;5.28;;;;;;;-146.64;100.00;81165.53;5029749;28;20021;-74
2022/01/28 08:13:28;;;;;;;33.37;4.73;;;;;;;-146.64;100.00;81165.53;5029660;28;20396;-74
2022/01/28 08:15:54;;;;;;;23.13;6.43;;;;;;;-146.64;100.00;81165.53;5025599;28;20284;-74
2022/01/28 08:18:19;;;;;;;23.60;6.45;;;;;;;-146.64;100.00;81165.53;5030233;28;20025;-74
2022/01/28 08:20:46;;;;;;;16.65;4.60;;;;;;;-146.64;100.00;80636.09;5052100;28;20460;-74
2022/01/28 08:23:12;;;;;;;25.10;5.10;;;;;;;-146.64;100.00;80900.81;5068024;28;20106;-74
2022/01/28 08:25:37;;;;;;;27.67;5.03;;;;;;;-146.64;100.00;82224.63;5039624;28;20041;-74
2022/01/28 08:28:04;;;;;;;26.42;6.18;;;;;;;-146.64;100.00;82224.63;5043851;28;20052;-74
2022/01/28 08:30:30;;;;;;;;;;;;;;;-146.64;100.00;82754.28;5037377;28;20090;-74
2022/01/28 08:32:55;;;;;;;23.98;6.10;;;;;;;-146.64;100.00;82754.28;5052464;28;19908;-74
2022/01/28 08:35:28;;;;;;;17.98;6.53;;;;;;;-146.64;100.00;82754.28;5050652;28;20032;-74
2022/01/28 08:37:54;;;;;;;27.52;6.63;;;;;;;-146.64;100.00;81959.81;5050587;28;20060;-74
2022/01/28 08:40:19;;;;;;;31.02;6.70;;;;;;;-146.64;100.00;82224.63;5052021;28;20056;-74
2022/01/28 08:42:44;;;;;;;35.38;8.23;;;;;;;-146.64;100.00;82489.44;5048257;28;20029;-74
2022/01/28 08:45:10;;;;;;;35.58;10.60;;;;;;;-146.64;100.00;83548.88;5015944;28;20437;-73
2022/01/28 08:47:35;;;;;;;39.05;10.60;;;;;;;-146.64;100.00;84343.66;5046734;28;20428;-74
2022/01/28 08:50:01;;;;;;;33.55;11.35;;;;;;;-146.64;100.00;83813.78;5046447;28;20402;-74
2022/01/28 08:52:26;;;;;;;32.80;9.88;;;;;;;-146.64;100.00;84078.72;5029664;28;20024;-74
2022/01/28 08:54:51;;;;;;;34.95;8.63;;;;;;;-146.64;100.00;84078.72;5050509;28;20032;-74
2022/01/28 08:57:17;;;;;;;35.05;8.48;;;;;;;-146.64;100.00;84343.66;5053673;28;20025;-74
2022/01/28 08:59:44;;;;;;;32.60;8.48;;;;;;;-146.64;100.00;83548.88;5069412;28;20039;-74
2022/01/28 09:02:10;;;;;;;33.63;8.20;;;;;;;-146.64;100.00;83284.00;5049551;28;20125;-74
2022/01/28 09:04:35;;;;;;;41.78;6.57;;;;;;;-146.64;100.00;83019.13;5034806;28;20048;-74
2022/01/28 09:07:00;;;;;;;33.03;6.88;;;;;;;-146.64;100.00;83019.13;5055277;28;20052;-74
2022/01/28 09:09:26;;;;;;;33.42;6.53;;;;;;;-146.64;100.00;80636.09;5050873;28;20035;-74
2022/01/28 09:12:07;;;;;;;33.83;7.15;;;;;;;-146.64;100.00;80106.72;5051834;28;20099;-74
2022/01/28 09:14:33;;;;;;;31.38;6.68;;;;;;;-146.64;100.00;79048.19;5053683;28;20024;-74
2022/01/28 09:16:58;;;;;;;30.60;5.82;;;;;;;-146.64;100.00;77196.41;5051669;28;20025;-74
2022/01/28 09:19:24;;;;;;;33.97;6.22;;;;;;;-146.64;100.00;75345.50;5051302;28;20024;-74
2022/01/28 09:21:50;;;;;;;22.73;5.75;;;;;;;-146.64;100.00;72967.03;5030316;28;20507;-74
2022/01/28 09:24:15;;;;;;;30.30;5.72;;;;;;;-146.64;100.00;70325.94;5050771;28;20062;-74
2022/01/28 09:26:40;;;;;;;33.58;6.82;;;;;;;-146.64;100.00;69797.91;5051212;28;20064;-74
2022/01/28 09:29:06;;;;;;;34.70;6.88;;;;;;;-146.64;100.00;69269.97;5054363;28;20060;-74
2022/01/28 09:31:31;;;;;;;35.42;5.88;;;;;;;-146.64;100.00;66631.31;5073131;28;20029;-74
2022/01/28 09:33:57;;;;;;;31.02;7.40;;;;;;;-146.64;100.00;62676.59;5051781;28;20102;-74
2022/01/28 09:36:22;;;;;;;44.50;7.22;;;;;;;-146.64;100.00;60832.41;5067095;28;20088;-74
2022/01/28 09:38:48;;;;;;;30.52;6.07;;;;;;;-146.64;100.00;57672.94;5053103;28;20036;-74
2022/01/28 09:41:14;;;;;;;26.10;6.20;;;;;;;-146.64;100.00;57672.94;5055076;28;20040;-74
2022/01/28 09:43:42;;;;;;;27.33;5.30;;;;;;;-146.64;100.00;57936.13;5051525;28;20051;-74
2022/01/28 09:46:07;;;;;;;22.85;5.88;;;;;;;-146.64;100.00;54010.59;5055428;28;20563;-74
2022/01/28 09:48:33;;;;;;;37.88;8.60;;;;;;;-146.64;100.00;52262.84;5049095;28;20108;-74
2022/01/28 09:50:59;;;;;;;30.95;5.18;;;;;;;-146.64;100.00;48363.44;5062955;28;20132;-74
2022/01/28 09:53:25;;;;;;;32.85;5.90;;;;;;;-146.64;100.00;48386.00;5054243;28;20016;-74
2022/01/28 09:55:52;;;;;;;30.02;5.25;;;;;;;-146.64;100.00;47975.75;5053263;28;20043;-74
2022/01/28 09:58:17;;;;;;;38.03;8.88;;;;;;;-146.64;100.00;45986.69;5054154;28;20034;-74
2022/01/28 10:00:43;;;;;;;38.88;5.85;;;;;;;-146.64;100.00;44855.22;5031659;28;20124;-74
2022/01/28 10:03:10;;;;;;;31.50;5.50;;;;;;;-146.64;100.00;44205.59;5034926;28;20079;-74
2022/01/28 10:05:35;;;;;;;;;;;;;;;-146.64;100.00;43427.00;5061877;28;20035;-75
2022/01/28 10:08:10;;;;;;;31.88;6.13;;;;;;;-146.64;100.00;42814.47;5048981;28;19912;-74
2022/01/28 10:11:08;;;;;;;24.17;6.05;;;;;;;-146.64;100.00;42142.66;5067749;28;20383;-74
2022/01/28 10:13:50;;;;;;;30.83;4.75;;;;;;;-146.64;100.00;41786.28;5043667;28;20025;-72
2022/01/28 10:16:24;;;;;;;19.80;4.43;;;;;;;-146.64;100.00;41278.44;5055676;28;20020;-72
2022/01/28 10:19:03;;;;;;;37.55;6.85;;;;;;;-146.64;100.00;41223.16;5068132;28;20047;-74
2022/01/28 10:21:39;;;;;;;34.03;7.65;;;;;;;-146.64;100.00;41077.78;5065244;28;20071;-74
2022/01/28 10:24:16;;;;;;;31.15;5.10;;;;;;;-146.64;100.00;40868.94;5043104;28;20480;-73
2022/01/28 10:26:55;;;;;;;28.02;5.10;;;;;;;-146.64;100.00;40721.53;5033032;28;20029;-73
2022/01/28 10:29:26;;;;;;;25.85;4.45;;;;;;;-146.64;100.00;40615.06;5059387;28;20032;-72
2022/01/28 10:31:56;;;;;;;21.33;4.60;;;;;;;-146.64;100.00;40623.28;5035778;28;20116;-72
2022/01/28 10:34:24;;;;;;;22.92;5.10;;;;;;;-146.64;100.00;40694.94;5070697;28;20103;-73
2022/01/28 10:36:52;;;;;;;28.83;5.10;;;;;;;-146.64;100.00;40754.28;5052429;28;20025;-73
2022/01/28 10:39:20;;;;;;;29.48;5.32;;;;;;;-146.64;100.00;40825.94;5071504;28;20034;-73
2022/01/28 10:41:56;;;;;;;30.50;6.45;;;;;;;-146.64;100.00;40866.91;5053798;28;20021;-73
2022/01/28 10:44:22;;;;;;;30.92;5.80;;;;;;;-146.64;100.00;40805.47;5049707;28;20508;-73
2022/01/28 10:46:54;;;;;;;37.03;6.00;;;;;;;-146.64;100.00;40778.88;5053517;28;20032;-73
2022/01/28 10:49:19;;;;;;;38.35;6.80;;;;;;;-146.64;100.00;40938.56;5053374;28;20020;-73
2022/01/28 10:51:48;;;;;;;32.47;6.00;;;;;;;-146.64;100.00;40971.31;5068029;28;20746;-73
2022/01/28 10:54:19;;;;;;;28.23;5.85;;;;;;;-146.64;100.00;40836.19;5053284;28;20028;-73
2022/01/28 10:56:47;;;;;;;33.00;6.85;;;;;;;-146.64;100.00;40774.78;5053197;28;20553;-73
2022/01/28 10:59:15;;;;;;;27.42;6.07;;;;;;;-146.64;100.00;40717.44;5053788;28;20039;-73
2022/01/28 11:01:42;;;;;;;34.55;6.95;;;;;;;-146.64;100.00;40656.03;5052381;28;20028;-73
2022/01/28 11:04:10;;;;;;;35.20;5.28;;;;;;;-146.64;100.00;40565.94;5071160;28;20035;-73
2022/01/28 11:06:36;;;;;;;33.75;6.38;;;;;;;-146.64;100.00;40533.19;5052998;28;20313;-73
2022/01/28 11:09:02;;;;;;;27.58;6.13;;;;;;;-146.64;100.00;40586.41;5050905;28;20166;-73
2022/01/28 11:11:27;;;;;;;26.42;6.85;;;;;;;-146.64;100.00;40514.75;5053474;28;20021;-73
2022/01/28 11:13:53;;;;;;;31.52;6.13;;;;;;;-146.64;100.00;40549.56;5042730;28;20039;-73
2022/01/28 11:16:18;;;;;;;21.55;5.50;;;;;;;-146.64;100.00;40488.16;5021437;28;20020;-73
2022/01/28 11:18:44;;;;;;;29.40;5.90;;;;;;;-146.64;100.00;40500.44;5052692;28;20036;-72
2022/01/28 11:21:14;;;;;;;24.83;5.53;;;;;;;-146.64;100.00;40561.84;5051126;28;20032;-72
2022/01/28 11:24:07;;;;;;;28.10;5.43;;;;;;;-146.64;100.00;40653.97;5048909;28;20020;-72
2022/01/28 11:26:43;;;;;;;31.42;5.35;;;;;;;-146.64;100.00;40619.19;5044913;28;20123;-72
2022/01/28 11:29:12;;;;;;;28.42;6.53;;;;;;;-146.64;100.00;40608.94;5017479;28;20017;-73
2022/01/28 11:31:58;;;;;;;35.67;6.82;;;;;;;-146.64;100.00;40430.81;5032769;28;20079;-73
2022/01/28 11:34:26;;;;;;;29.92;6.53;;;;;;;-146.64;100.00;40299.81;5066860;28;20025;-72
2022/01/28 11:36:56;;;;;;;27.40;6.55;;;;;;;-146.64;100.00;40242.50;5069092;28;20031;-73
2022/01/28 11:39:29;;;;;;;30.65;5.05;;;;;;;-146.64;100.00;40127.84;5057139;28;20036;-72
2022/01/28 11:42:17;;;;;;;23.98;6.13;;;;;;;-146.64;100.00;40142.19;5068907;28;20108;-72
2022/01/28 11:44:50;;;;;;;28.42;6.68;;;;;;;-146.64;100.00;40168.81;5031109;28;20024;-72
2022/01/28 11:47:33;;;;;;;36.67;6.63;;;;;;;-146.64;100.00;40185.19;5056108;28;20060;-72
2022/01/28 11:50:18;;;;;;;29.83;5.25;;;;;;;-146.64;100.00;40193.38;5068081;28;20034;-73
2022/01/28 11:52:46;;;;;;;26.80;5.60;;;;;;;-146.64;100.00;40213.84;5045006;28;20077;-72
2022/01/28 11:55:14;;;;;;;24.80;5.72;;;;;;;-146.64;100.00;40097.16;5049760;28;20020;-74
2022/01/28 11:57:57;;;;;;;26.95;5.80;;;;;;;-146.64;100.00;40164.72;5062079;28;20059;-72
2022/01/28 12:00:27;;;;;;;27.65;6.28;;;;;;;-146.64;100.00;40226.13;5066122;28;20021;-73
2022/01/28 12:02:53;;;;;;;37.53;6.60;;;;;;;-146.64;100.00;40129.91;5048959;28;20036;-72
2022/01/28 12:05:30;;;;;;;27.88;6.80;;;;;;;-146.64;100.00;40131.94;5069511;28;20112;-74
2022/01/28 12:07:57;;;;;;;26.52;5.63;;;;;;;-146.64;100.00;40140.13;5071722;28;20040;-73
2022/01/28 12:10:26;;;;;;;25.63;7.17;;;;;;;-146.64;100.00;40134.00;5051875;28;20128;-74
2022/01/28 12:13:00;;;;;;;26.70;6.70;;;;;;;-146.64;100.00;40045.97;5048498;28;20029;-73
2022/01/28 12:15:29;;;;;;;22.42;5.90;;;;;;;-146.64;100.00;39976.38;5052142;28;20036;-73
2022/01/28 12:18:05;;;;;;;22.23;5.72;;;;;;;-146.64;100.00;39939.53;5051170;28;20025;-73
2022/01/28 12:20:44;;;;;;;27.95;4.68;;;;;;;-146.64;100.00;39847.44;5065969;28;20024;-73
2022/01/28 12:23:09;;;;;;;19.48;4.82;;;;;;;-146.64;100.00;39763.50;5054443;28;20037;-73